Time;durP1;ratioP1;P1;durP2;ratioP2;P2;SDS_P1;SDS_P2;PMS_P1;PMS_P2;Temp;Humidity;BMP_temperature;BMP_pressure;BME280_temperature;BME280_humidity;BME280_pressure;Samples;Min_cycle;Max_cycle;Signal;HPM_P1;HPM_P2
2023/09/21 00:01:14;;;;;;;5.35;3.22;;;;;;;16.72;100.00;99868.47;5034792;28;20041;-81
2023/09/21 00:03:42;;;;;;;7.60;3.20;;;;;;;16.70;100.00;99868.25;5037293;28;20053;-80
2023/09/21 00:06:13;;;;;;;6.28;3.45;;;;;;;16.65;100.00;99858.31;5033461;28;20029;-81
2023/09/21 00:08:41;;;;;;;4.60;2.60;;;;;;;16.55;100.00;99845.59;5032153;28;20064;-80
2023/09/21 00:11:06;;;;;;;3.90;3.40;;;;;;;16.64;100.00;99861.75;5033568;28;20061;-79
2023/09/21 00:13:38;;;;;;;5.03;3.13;;;;;;;16.63;100.00;99860.97;5032013;28;20045;-81
2023/09/21 00:16:11;;;;;;;5.85;3.15;;;;;;;16.60;100.00;99858.41;5033720;28;20036;-80
2023/09/21 00:18:40;;;;;;;6.78;2.90;;;;;;;16.60;100.00;99852.66;5034273;28;20539;-80
2023/09/21 00:21:06;;;;;;;5.20;3.47;;;;;;;16.59;100.00;99848.19;4999252;28;20068;-80
2023/09/21 00:23:34;;;;;;;3.25;2.95;;;;;;;16.58;100.00;99847.41;5034644;28;20042;-79
2023/09/21 00:26:07;;;;;;;4.22;3.30;;;;;;;16.51;100.00;99840.13;5036413;28;20037;-81
2023/09/21 00:28:32;;;;;;;6.53;3.38;;;;;;;16.53;100.00;99840.41;5018835;28;20022;-79
2023/09/21 00:30:59;;;;;;;4.78;3.30;;;;;;;16.50;100.00;99832.03;5038670;28;20044;-81
2023/09/21 00:33:32;;;;;;;5.38;3.20;;;;;;;16.51;100.00;99839.34;5035068;28;20060;-81
2023/09/21 00:35:59;;;;;;;3.35;3.00;;;;;;;16.51;100.00;99839.34;5035405;28;20029;-81
2023/09/21 00:38:26;;;;;;;5.50;3.08;;;;;;;16.49;100.00;99831.25;5002554;28;20488;-80
2023/09/21 00:40:58;;;;;;;4.07;2.97;;;;;;;16.49;100.00;99834.13;5018737;28;20474;-83
2023/09/21 00:43:25;;;;;;;5.22;3.45;;;;;;;16.44;100.00;99823.47;5018987;28;20130;-81
2023/09/21 00:45:53;;;;;;;5.95;3.40;;;;;;;16.49;100.00;99830.47;5036025;28;20033;-82
2023/09/21 00:48:25;;;;;;;6.97;3.28;;;;;;;16.47;100.00;99833.91;5035060;28;20499;-82
2023/09/21 00:51:10;;;;;;;4.35;3.30;;;;;;;16.45;100.00;99832.91;5034077;28;20037;-82
2023/09/21 00:53:39;;;;;;;5.63;3.53;;;;;;;16.42;100.00;99828.97;5034739;28;20025;-81
2023/09/21 00:56:09;;;;;;;5.93;3.45;;;;;;;16.28;100.00;99810.03;5018998;28;20064;-79
2023/09/21 00:58:45;;;;;;;5.32;3.17;;;;;;;16.30;100.00;99816.06;5034450;28;20025;-79
2023/09/21 01:01:37;;;;;;;3.83;3.28;;;;;;;16.39;100.00;99835.06;5035334;28;20068;-80
2023/09/21 01:04:06;;;;;;;8.10;3.90;;;;;;;16.32;100.00;99827.81;5035581;28;20060;-79
2023/09/21 01:06:33;;;;;;;5.57;3.35;;;;;;;16.32;100.00;99833.56;5034262;28;20438;-81
2023/09/21 01:08:59;;;;;;;7.40;3.70;;;;;;;16.29;100.00;99828.91;5035390;28;20072;-81
2023/09/21 01:11:26;;;;;;;4.80;3.40;;;;;;;16.29;100.00;99816.59;5018034;28;20036;-82
2023/09/21 01:14:00;;;;;;;6.82;4.03;;;;;;;16.27;100.00;99814.25;5035327;28;20029;-80
2023/09/21 01:16:27;;;;;;;3.50;3.00;;;;;;;16.27;100.00;99813.47;5033996;28;20037;-80
2023/09/21 01:18:53;;;;;;;5.30;3.40;;;;;;;16.17;100.00;99803.63;5034942;28;20112;-80
2023/09/21 01:21:26;;;;;;;14.43;4.07;;;;;;;16.24;100.00;99808.81;5001215;28;20439;-81
2023/09/21 01:23:52;;;;;;;6.43;3.72;;;;;;;16.21;100.00;99818.53;5033911;28;20064;-80
2023/09/21 01:26:22;;;;;;;4.55;3.42;;;;;;;16.16;100.00;99797.09;5032149;28;20389;-81
2023/09/21 01:28:56;;;;;;;4.65;3.20;;;;;;;16.13;100.00;99809.72;5032751;28;20036;-80
2023/09/21 01:31:22;;;;;;;8.20;3.53;;;;;;;16.09;100.00;99810.03;5048686;28;20048;-80
2023/09/21 01:34:03;;;;;;;7.60;3.63;;;;;;;16.08;100.00;99804.81;5033346;28;20120;-81
2023/09/21 01:36:32;;;;;;;6.32;3.28;;;;;;;16.06;100.00;99799.56;5034739;28;20025;-80
2023/09/21 01:38:59;;;;;;;6.88;3.28;;;;;;;16.01;100.00;99794.66;5033799;28;20108;-79
2023/09/21 01:41:24;;;;;;;9.50;3.75;;;;;;;16.02;100.00;99795.44;5032088;28;20033;-80
2023/09/21 01:43:52;;;;;;;5.30;3.22;;;;;;;15.97;100.00;99765.38;5002207;28;20453;-80
2023/09/21 01:46:22;;;;;;;6.25;3.38;;;;;;;15.91;100.00;99786.97;5034401;28;20021;-79
2023/09/21 01:48:51;;;;;;;14.10;4.80;;;;;;;15.86;100.00;99790.69;5034591;28;20048;-80
2023/09/21 01:51:23;;;;;;;4.20;3.55;;;;;;;15.88;100.00;99785.94;5034577;28;20030;-79
2023/09/21 01:53:48;;;;;;;4.38;3.20;;;;;;;15.79;100.00;99777.66;5016505;28;20037;-80
2023/09/21 01:56:16;;;;;;;5.32;3.60;;;;;;;15.77;100.00;99774.53;5034625;28;20431;-79
2023/09/21 01:58:42;;;;;;;3.75;3.13;;;;;;;15.81;100.00;99772.13;5033215;28;20029;-79
2023/09/21 02:01:09;;;;;;;4.75;3.30;;;;;;;15.90;100.00;99783.31;5033872;28;20107;-82
2023/09/21 02:03:35;;;;;;;5.50;3.40;;;;;;;15.86;100.00;99764.75;5034226;28;20037;-80
2023/09/21 02:06:05;;;;;;;8.00;3.40;;;;;;;15.91;100.00;99776.19;5033065;28;20053;-80
2023/09/21 02:08:33;;;;;;;8.13;3.95;;;;;;;15.91;100.00;99779.06;5033165;28;20103;-80
2023/09/21 02:11:01;;;;;;;4.43;3.20;;;;;;;15.87;100.00;99760.53;5033744;28;20045;-79
2023/09/21 02:13:28;;;;;;;4.95;3.20;;;;;;;15.88;100.00;99764.97;5034036;28;20029;-79
2023/09/21 02:15:55;;;;;;;5.78;3.75;;;;;;;15.85;100.00;99751.66;5032974;28;20451;-80
2023/09/21 02:18:21;;;;;;;5.43;3.17;;;;;;;15.84;100.00;99753.78;5032890;28;20025;-78
2023/09/21 02:20:55;;;;;;;5.78;3.42;;;;;;;15.82;100.00;99744.09;5034076;28;20025;-80
2023/09/21 02:23:22;;;;;;;3.45;3.10;;;;;;;15.79;100.00;99753.84;5033859;28;20527;-80
2023/09/21 02:25:55;;;;;;;8.32;3.85;;;;;;;15.78;100.00;99752.28;5031980;28;20099;-80
2023/09/21 02:28:23;;;;;;;6.60;3.42;;;;;;;15.75;100.00;99757.03;5034378;28;20434;-81
2023/09/21 02:30:52;;;;;;;4.32;3.58;;;;;;;15.73;100.00;99756.00;5034383;28;20026;-80
2023/09/21 02:33:18;;;;;;;6.85;3.50;;;;;;;15.74;100.00;99751.81;5046047;28;20032;-79
2023/09/21 02:35:46;;;;;;;4.22;3.15;;;;;;;15.69;100.00;99742.69;5030035;28;20021;-80
2023/09/21 02:38:26;;;;;;;6.15;3.83;;;;;;;15.76;100.00;99754.94;5038354;28;20112;-80
2023/09/21 02:40:57;;;;;;;6.72;3.63;;;;;;;15.75;100.00;99754.16;5032849;28;20108;-81
2023/09/21 02:43:29;;;;;;;4.35;3.58;;;;;;;15.68;100.00;99744.00;5047855;28;20037;-79
2023/09/21 02:46:00;;;;;;;;;;;;;;;15.72;100.00;99749.44;5032713;28;20044;-81
2023/09/21 02:48:38;;;;;;;4.73;3.20;;;;;;;15.69;100.00;99753.44;5031830;28;19916;-80
2023/09/21 02:51:05;;;;;;;4.03;3.15;;;;;;;15.65;100.00;99744.31;5032840;28;20287;-80
2023/09/21 02:53:31;;;;;;;7.25;3.60;;;;;;;15.62;100.00;99733.88;5034326;28;20037;-79
2023/09/21 02:55:59;;;;;;;8.80;3.90;;;;;;;15.63;100.00;99746.94;5032360;28;20457;-80
2023/09/21 02:58:26;;;;;;;17.85;4.95;;;;;;;15.61;100.00;99746.72;5016630;28;20060;-79
2023/09/21 03:00:51;;;;;;;6.20;3.50;;;;;;;15.59;100.00;99743.59;5033195;28;20487;-81
2023/09/21 03:03:30;;;;;;;7.53;3.90;;;;;;;15.55;100.00;99734.47;5015382;28;20041;-81
2023/09/21 03:05:58;;;;;;;8.18;4.53;;;;;;;15.51;100.00;99729.00;5032129;28;20029;-80
2023/09/21 03:08:33;;;;;;;7.00;3.80;;;;;;;15.50;100.00;99741.06;5033551;28;20021;-80
2023/09/21 03:11:02;;;;;;;6.32;3.53;;;;;;;15.51;100.00;99739.75;5032400;28;20104;-80
2023/09/21 03:13:30;;;;;;;5.45;3.85;;;;;;;15.50;100.00;99736.09;5033470;28;20029;-80
2023/09/21 03:16:01;;;;;;;5.32;3.40;;;;;;;15.49;100.00;99736.63;5033586;28;20034;-80
2023/09/21 03:18:27;;;;;;;7.75;3.95;;;;;;;15.52;100.00;99735.53;5032789;28;20045;-78
2023/09/21 03:20:54;;;;;;;5.55;4.07;;;;;;;15.51;100.00;99743.41;5033143;28;20108;-80
2023/09/21 03:23:22;;;;;;;4.18;3.05;;;;;;;15.53;100.00;99742.84;5030181;28;20133;-81
2023/09/21 03:25:50;;;;;;;3.97;3.17;;;;;;;15.52;100.00;99741.28;5015697;28;20112;-80
2023/09/21 03:28:19;;;;;;;4.93;3.40;;;;;;;15.53;100.00;99734.22;5015514;28;20029;-79
2023/09/21 03:31:05;;;;;;;8.45;4.30;;;;;;;15.53;100.00;99731.34;5015813;28;20116;-80
2023/09/21 03:33:31;;;;;;;5.38;3.83;;;;;;;15.52;100.00;99726.88;5033959;28;20027;-79
2023/09/21 03:35:58;;;;;;;8.45;4.22;;;;;;;15.52;100.00;99721.13;5033821;28;20032;-79
2023/09/21 03:38:27;;;;;;;8.95;3.97;;;;;;;15.45;100.00;99713.91;5032247;28;20030;-80
2023/09/21 03:40:57;;;;;;;6.25;4.00;;;;;;;15.45;100.00;99708.13;5033400;28;20029;-78
2023/09/21 03:43:25;;;;;;;5.65;3.60;;;;;;;15.40;100.00;99713.97;5031997;28;20033;-81
2023/09/21 03:45:52;;;;;;;6.00;4.18;;;;;;;15.43;100.00;99707.09;5033317;28;20080;-80
2023/09/21 03:48:20;;;;;;;5.35;4.22;;;;;;;15.36;100.00;99708.50;5031652;28;20028;-79
2023/09/21 03:50:47;;;;;;;7.40;4.30;;;;;;;15.26;100.00;99690.03;5032978;28;20052;-80
2023/09/21 03:53:15;;;;;;;4.80;3.90;;;;;;;15.27;100.00;99701.00;5033108;28;20024;-80
2023/09/21 03:55:41;;;;;;;4.72;3.70;;;;;;;15.32;100.00;99707.25;5031806;28;20029;-82
2023/09/21 03:58:08;;;;;;;9.13;3.75;;;;;;;15.18;100.00;99681.22;5033262;28;20032;-80
2023/09/21 04:03:03;;;;;;;4.93;3.88;;;;;;;15.31;100.00;99703.59;5037055;28;20092;-79
2023/09/21 04:05:46;;;;;;;7.63;3.77;;;;;;;15.26;100.00;99690.03;5036917;28;20071;-79
2023/09/21 04:08:13;;;;;;;5.68;4.93;;;;;;;15.27;100.00;99700.22;5036880;28;20029;-79
2023/09/21 04:10:40;;;;;;;5.53;3.72;;;;;;;15.19;100.00;99682.78;5035645;28;20022;-80
2023/09/21 04:13:08;;;;;;;8.07;3.75;;;;;;;15.08;100.00;99671.38;5035374;28;20109;-80
2023/09/21 04:15:34;;;;;;;4.85;3.95;;;;;;;14.95;100.00;99671.28;5036572;28;20034;-79
2023/09/21 04:18:04;;;;;;;7.28;4.28;;;;;;;15.00;100.00;99663.91;5036364;28;20053;-78
2023/09/21 04:20:34;;;;;;;6.38;3.35;;;;;;;15.13;100.00;99687.03;5035167;28;20081;-79
2023/09/21 04:23:00;;;;;;;5.05;3.40;;;;;;;15.10;100.00;99688.91;5020308;28;20042;-81
2023/09/21 04:25:26;;;;;;;6.30;4.40;;;;;;;15.13;100.00;99687.81;5014999;28;20044;-81
2023/09/21 04:27:54;;;;;;;7.20;4.25;;;;;;;15.08;100.00;99685.78;5015287;28;20034;-80
2023/09/21 04:30:24;;;;;;;5.00;3.78;;;;;;;15.06;100.00;99681.88;5012283;28;20112;-82
2023/09/21 04:32:54;;;;;;;6.15;3.83;;;;;;;15.08;100.00;99674.25;5016197;28;20033;-83
2023/09/21 04:35:20;;;;;;;9.35;4.15;;;;;;;14.99;100.00;99657.38;5015057;28;20034;-80
2023/09/21 04:37:58;;;;;;;6.40;3.65;;;;;;;15.15;100.00;99690.94;5014425;28;20445;-81
2023/09/21 04:40:39;;;;;;;5.07;3.63;;;;;;;15.15;100.00;99690.16;5015814;28;20072;-80
2023/09/21 04:43:04;;;;;;;7.38;3.97;;;;;;;15.14;100.00;99680.75;5015905;28;20030;-82
2023/09/21 04:45:32;;;;;;;5.43;3.75;;;;;;;15.13;100.00;99690.69;5014779;28;20052;-82
2023/09/21 04:48:03;;;;;;;7.25;4.28;;;;;;;15.14;100.00;99679.97;5016305;28;20026;-81
2023/09/21 04:50:29;;;;;;;5.82;3.60;;;;;;;15.15;100.00;99684.41;5014843;28;20128;-80
2023/09/21 04:52:55;;;;;;;5.03;3.25;;;;;;;15.18;100.00;99680.44;5034801;28;20102;-81
2023/09/21 04:55:23;;;;;;;7.10;4.40;;;;;;;15.12;100.00;99666.09;5034805;28;20041;-79
2023/09/21 04:57:48;;;;;;;9.88;4.10;;;;;;;15.19;100.00;99679.91;5035960;28;20053;-76
2023/09/21 05:00:17;;;;;;;6.78;4.03;;;;;;;15.21;100.00;99683.03;5035663;28;20053;-77
2023/09/21 05:02:43;;;;;;;7.22;4.18;;;;;;;15.23;100.00;99691.09;5036055;28;20195;-77
2023/09/21 05:05:10;;;;;;;6.43;3.67;;;;;;;15.18;100.00;99674.69;5018395;28;20116;-82
2023/09/21 05:07:37;;;;;;;5.25;4.00;;;;;;;15.25;100.00;99677.75;5037224;28;20034;-83
2023/09/21 05:10:06;;;;;;;9.93;5.10;;;;;;;15.17;100.00;99661.59;5033344;28;20044;-83
2023/09/21 05:12:34;;;;;;;6.30;3.92;;;;;;;15.31;100.00;99679.78;5035907;28;20025;-86
2023/09/21 05:15:06;;;;;;;6.13;4.68;;;;;;;15.31;100.00;99679.78;5034384;28;20026;-84
2023/09/21 05:17:36;;;;;;;6.35;4.40;;;;;;;15.33;100.00;99680.00;5020266;28;20073;-79
2023/09/21 05:20:06;;;;;;;5.35;4.28;;;;;;;15.31;100.00;99669.03;4991701;28;20033;-78
2023/09/21 05:22:34;;;;;;;6.35;4.53;;;;;;;15.34;100.00;99667.94;5028103;28;20158;-80
2023/09/21 05:25:03;;;;;;;8.43;4.22;;;;;;;15.37;100.00;99668.94;5035085;28;20450;-80
2023/09/21 05:27:32;;;;;;;7.13;4.15;;;;;;;15.40;100.00;99670.75;5032015;28;20022;-80
2023/09/21 05:30:03;;;;;;;7.25;4.30;;;;;;;15.34;100.00;99659.31;5034912;28;20036;-81
2023/09/21 05:32:38;;;;;;;6.30;3.65;;;;;;;15.50;100.00;99671.94;5035305;28;20033;-82
2023/09/21 05:35:06;;;;;;;10.43;4.38;;;;;;;15.54;100.00;99664.56;5035403;28;20479;-81
2023/09/21 05:37:35;;;;;;;6.50;4.00;;;;;;;15.44;100.00;99636.69;5039296;28;20094;-83
2023/09/21 05:40:11;;;;;;;7.20;4.18;;;;;;;15.68;100.00;99665.44;5043081;28;20013;-82
2023/09/21 05:42:39;;;;;;;8.45;4.78;;;;;;;15.72;100.00;99662.25;5057834;28;20038;-79
2023/09/21 05:45:05;;;;;;;7.80;4.07;;;;;;;15.69;100.00;99664.13;5055487;28;20055;-79
2023/09/21 05:47:30;;;;;;;7.68;4.97;;;;;;;15.84;100.00;99664.44;5035754;28;20060;-80
2023/09/21 05:49:56;;;;;;;12.45;4.18;;;;;;;15.88;100.00;99659.16;5033340;28;20041;-78
2023/09/21 05:52:24;;;;;;;7.60;4.40;;;;;;;15.95;100.00;99666.38;5034032;28;20109;-81
2023/09/21 05:54:52;;;;;;;6.88;4.60;;;;;;;15.94;100.00;99659.06;5033471;28;20124;-82
2023/09/21 05:57:19;;;;;;;6.30;4.10;;;;;;;16.39;100.00;99664.91;5034996;28;20037;-81
2023/09/21 05:59:44;;;;;;;9.50;4.25;;;;;;;17.42;100.00;99667.75;5035038;28;20021;-80
2023/09/21 06:02:13;;;;;;;9.18;4.13;;;;;;;18.74;100.00;99661.56;5032905;28;20132;-81
2023/09/21 06:04:41;;;;;;;5.28;3.63;;;;;;;20.13;100.00;99658.38;5032320;28;20029;-79
2023/09/21 06:07:10;;;;;;;7.93;3.03;;;;;;;21.35;100.00;99644.69;5017282;28;20034;-81
2023/09/21 06:09:35;;;;;;;7.13;3.78;;;;;;;22.59;100.00;99655.97;5031384;28;20033;-82
2023/09/21 06:12:01;;;;;;;10.13;3.40;;;;;;;23.74;100.00;99652.22;5027663;28;20033;-82
2023/09/21 06:14:27;;;;;;;7.47;3.30;;;;;;;24.78;100.00;99637.31;5034623;28;20025;-79
2023/09/21 06:16:54;;;;;;;7.75;3.47;;;;;;;25.87;100.00;99637.84;5034018;28;20358;-82
2023/09/21 06:19:23;;;;;;;12.98;3.20;;;;;;;26.72;100.00;99634.59;5033750;28;20044;-84
2023/09/21 06:21:56;;;;;;;9.25;2.70;;;;;;;27.55;100.00;99638.28;5033897;28;20108;-80
2023/09/21 06:24:26;;;;;;;6.57;2.88;;;;;;;28.31;100.00;99627.25;5032582;28;20056;-82
2023/09/21 06:26:53;;;;;;;3.08;2.47;;;;;;;28.94;100.00;99627.56;5030946;28;20025;-81
2023/09/21 06:29:23;;;;;;;6.93;2.97;;;;;;;29.52;100.00;99622.41;5031633;28;20426;-81
2023/09/21 06:32:00;;;;;;;8.07;3.00;;;;;;;29.92;100.00;99615.22;5017784;28;20445;-81
2023/09/21 06:34:26;;;;;;;5.30;3.20;;;;;;;30.09;100.00;99619.88;5014631;28;20063;-81
2023/09/21 06:36:52;;;;;;;4.88;3.67;;;;;;;30.40;100.00;99614.34;5014443;28;20364;-80
2023/09/21 06:39:21;;;;;;;4.40;2.38;;;;;;;30.61;100.00;99621.41;5014295;28;20087;-81
2023/09/21 06:41:47;;;;;;;7.50;3.17;;;;;;;30.94;100.00;99616.66;5013655;28;20096;-83
2023/09/21 06:44:14;;;;;;;3.80;2.67;;;;;;;31.27;100.00;99625.09;5023239;28;20041;-81
2023/09/21 06:46:43;;;;;;;4.15;2.40;;;;;;;31.21;100.00;99567.91;5030646;28;20401;-83
2023/09/21 06:49:10;;;;;;;4.82;2.92;;;;;;;31.68;99.29;99618.38;5034205;28;20025;-82
2023/09/21 06:51:37;;;;;;;4.55;2.70;;;;;;;31.77;93.56;99620.34;5033555;28;20076;-79
2023/09/21 06:54:03;;;;;;;4.78;2.22;;;;;;;31.61;91.92;99616.50;5034047;28;20025;-80
2023/09/21 06:56:32;;;;;;;10.45;2.67;;;;;;;31.36;92.49;99621.16;5021388;28;20038;-81
2023/09/21 06:58:58;;;;;;;5.57;2.67;;;;;;;31.20;92.14;99608.50;5011767;28;20045;-79
2023/09/21 07:01:29;;;;;;;5.07;2.45;;;;;;;31.06;93.33;99606.94;5013840;28;20562;-82
2023/09/21 07:03:54;;;;;;;4.25;2.40;;;;;;;30.87;94.34;99620.69;5013951;28;20108;-82
2023/09/21 07:06:20;;;;;;;2.45;2.08;;;;;;;30.86;95.95;99612.50;5014373;28;20061;-82
2023/09/21 07:08:47;;;;;;;3.35;2.55;;;;;;;30.85;96.04;99605.06;5014487;28;20060;-82
2023/09/21 07:11:19;;;;;;;6.13;2.63;;;;;;;30.94;98.30;99615.91;5027420;28;20025;-81
2023/09/21 07:13:51;;;;;;;6.05;2.72;;;;;;;31.02;96.10;99615.56;5033629;28;20494;-81
2023/09/21 07:16:19;;;;;;;8.55;3.05;;;;;;;30.99;93.70;99611.75;5032558;28;20087;-82
2023/09/21 07:18:47;;;;;;;5.05;2.45;;;;;;;30.88;92.05;99600.78;5033471;28;20030;-82
2023/09/21 07:21:14;;;;;;;5.07;2.30;;;;;;;30.85;94.70;99610.97;5033324;28;20052;-79
2023/09/21 07:23:41;;;;;;;5.55;2.40;;;;;;;30.78;93.75;99618.72;5033790;28;20041;-82
2023/09/21 07:26:08;;;;;;;9.05;3.67;;;;;;;30.67;94.56;99610.72;5032186;28;20041;-80
2023/09/21 07:28:33;;;;;;;3.50;2.17;;;;;;;30.46;94.79;99599.19;5031639;28;20033;-77
2023/09/21 07:31:01;;;;;;;6.35;2.33;;;;;;;30.36;95.82;99595.66;5136125;22;20081;-76
2023/09/21 07:33:32;;;;;;;3.20;2.70;;;;;;;30.38;96.21;99590.63;5031738;28;20104;-77
2023/09/21 07:35:57;;;;;;;7.85;2.70;;;;;;;30.68;94.24;99612.25;5037387;28;20049;-77
2023/09/21 07:38:23;;;;;;;5.30;2.20;;;;;;;30.66;95.38;99620.25;5037075;28;20065;-79
2023/09/21 07:40:49;;;;;;;4.32;2.00;;;;;;;30.67;96.55;99613.66;5037128;28;20037;-78
2023/09/21 07:43:14;;;;;;;9.23;2.92;;;;;;;30.61;97.35;99609.59;5036899;28;20105;-77
2023/09/21 07:45:42;;;;;;;4.15;3.00;;;;;;;30.61;96.53;99612.56;5037182;28;20490;-78
2023/09/21 07:48:08;;;;;;;2.92;2.28;;;;;;;30.56;97.27;99599.75;5036760;28;20447;-77
2023/09/21 07:50:36;;;;;;;7.10;2.58;;;;;;;30.52;96.73;99594.38;5036847;28;20124;-77
2023/09/21 07:53:04;;;;;;;6.45;2.90;;;;;;;30.46;98.02;99591.13;5037168;28;20021;-77
2023/09/21 07:55:34;;;;;;;3.60;2.28;;;;;;;30.37;98.98;99591.28;5037021;28;20049;-78
2023/09/21 07:57:59;;;;;;;4.13;2.50;;;;;;;30.28;100.00;99587.13;5019278;28;20102;-78
2023/09/21 08:00:25;;;;;;;6.05;2.47;;;;;;;30.27;99.92;99590.72;5014955;28;20073;-77
2023/09/21 08:02:53;;;;;;;3.58;2.50;;;;;;;30.32;99.80;99589.53;5020681;28;20438;-76
2023/09/21 08:05:18;;;;;;;8.90;2.88;;;;;;;30.26;100.00;99592.91;5017576;28;20030;-76
2023/09/21 08:07:46;;;;;;;5.85;2.70;;;;;;;30.23;100.00;99594.19;5014126;28;20057;-77
2023/09/21 08:10:11;;;;;;;6.88;2.60;;;;;;;30.17;100.00;99590.16;5015480;28;20022;-76
2023/09/21 08:12:40;;;;;;;4.53;3.17;;;;;;;30.13;100.00;99590.66;4997493;28;20125;-77
2023/09/21 08:15:10;;;;;;;9.60;2.95;;;;;;;30.07;100.00;99587.38;5015353;28;20029;-77
2023/09/21 08:17:38;;;;;;;7.97;2.77;;;;;;;29.94;100.00;99570.38;5000932;28;20040;-78
2023/09/21 08:20:09;;;;;;;4.78;2.45;;;;;;;29.84;100.00;99572.72;5016455;28;20033;-77
2023/09/21 08:22:41;;;;;;;8.00;2.80;;;;;;;29.88;100.00;99564.91;4999634;28;20380;-77
2023/09/21 08:25:08;;;;;;;4.80;2.63;;;;;;;29.93;100.00;99566.66;5017977;28;20084;-75
2023/09/21 08:27:34;;;;;;;5.68;2.47;;;;;;;29.85;100.00;99556.59;5035156;28;20477;-75
2023/09/21 08:30:03;;;;;;;6.63;2.53;;;;;;;29.78;100.00;99557.63;5034110;28;20116;-74
2023/09/21 08:32:31;;;;;;;4.90;2.58;;;;;;;29.66;100.00;99566.56;5035708;28;20092;-76
2023/09/21 08:34:56;;;;;;;6.00;2.55;;;;;;;29.46;100.00;99548.41;5035631;28;20094;-76
2023/09/21 08:37:22;;;;;;;5.55;3.05;;;;;;;29.33;100.00;99557.19;5024695;28;20025;-77
2023/09/21 08:39:47;;;;;;;6.13;2.95;;;;;;;29.27;100.00;99551.69;5016293;28;20025;-80
2023/09/21 08:42:14;;;;;;;5.53;2.63;;;;;;;29.28;100.00;99559.84;5016738;28;20407;-77
2023/09/21 08:44:43;;;;;;;7.43;3.30;;;;;;;29.34;100.00;99553.56;5015238;28;20037;-77
2023/09/21 08:47:17;;;;;;;11.15;2.92;;;;;;;29.24;100.00;99550.78;5014575;28;20049;-77
2023/09/21 08:50:09;;;;;;;4.03;2.60;;;;;;;29.14;100.00;99547.22;5016043;28;20030;-79
2023/09/21 08:52:36;;;;;;;4.88;2.55;;;;;;;29.03;100.00;99535.50;5014216;28;20111;-78
2023/09/21 08:55:03;;;;;;;8.50;2.67;;;;;;;29.04;100.00;99542.91;5016165;28;20087;-77
2023/09/21 08:57:33;;;;;;;3.75;2.30;;;;;;;28.95;100.00;99541.59;5016511;28;20026;-81
2023/09/21 09:00:11;;;;;;;4.75;2.47;;;;;;;28.85;100.00;99541.75;5033696;28;20029;-77
2023/09/21 09:02:37;;;;;;;4.72;2.53;;;;;;;28.83;100.00;99535.00;5035543;28;20025;-76
2023/09/21 09:05:07;;;;;;;10.18;3.08;;;;;;;28.90;100.00;99536.88;5035373;28;20021;-78
2023/09/21 09:07:39;;;;;;;6.00;2.63;;;;;;;28.89;100.00;99536.13;5035965;28;20025;-78
2023/09/21 09:10:09;;;;;;;4.15;2.92;;;;;;;28.83;100.00;99526.16;5035388;28;20471;-80
2023/09/21 09:12:35;;;;;;;9.70;2.33;;;;;;;28.78;100.00;99525.16;5035411;28;20049;-79
2023/09/21 09:15:02;;;;;;;10.98;2.75;;;;;;;28.69;100.00;99531.16;5035350;28;20026;-77
2023/09/21 09:17:30;;;;;;;7.50;2.70;;;;;;;28.64;100.00;99518.38;5035473;28;20039;-77
2023/09/21 09:20:07;;;;;;;3.75;2.20;;;;;;;28.69;100.00;99517.22;5034951;28;20033;-79
2023/09/21 09:22:38;;;;;;;7.40;2.47;;;;;;;28.66;100.00;99508.91;5034998;28;20360;-77
2023/09/21 09:25:05;;;;;;;5.78;2.58;;;;;;;28.75;100.00;99517.59;5034385;28;20022;-77
2023/09/21 09:27:35;;;;;;;6.97;3.08;;;;;;;28.72;100.00;99518.88;5017170;28;20033;-78
2023/09/21 09:30:03;;;;;;;4.78;2.40;;;;;;;28.63;100.00;99513.16;5034472;28;20470;-77
2023/09/21 09:32:37;;;;;;;5.32;2.65;;;;;;;28.57;100.00;99501.00;5034742;28;20077;-77
2023/09/21 09:35:06;;;;;;;4.15;2.20;;;;;;;28.46;100.00;99493.72;5039636;28;20093;-79
2023/09/21 09:37:34;;;;;;;7.97;2.10;;;;;;;28.44;100.00;99485.50;5037929;28;20025;-80
2023/09/21 09:40:12;;;;;;;8.32;2.22;;;;;;;28.51;100.00;99489.63;5035290;28;20055;-78
2023/09/21 09:42:41;;;;;;;7.47;2.90;;;;;;;28.51;100.00;99492.56;5018685;28;20104;-79
2023/09/21 09:45:18;;;;;;;10.52;2.60;;;;;;;28.52;100.00;99508.03;5033980;28;20017;-78
2023/09/21 09:47:56;;;;;;;8.88;2.40;;;;;;;28.48;100.00;99485.03;5031727;28;20018;-77
2023/09/21 09:50:24;;;;;;;9.38;2.78;;;;;;;28.44;100.00;99482.56;5031705;28;20417;-78
2023/09/21 09:53:10;;;;;;;6.32;2.63;;;;;;;28.47;100.00;99492.31;5032559;28;20458;-78
2023/09/21 09:55:36;;;;;;;4.05;2.97;;;;;;;28.42;100.00;99484.63;5031045;28;20078;-77
2023/09/21 09:58:03;;;;;;;7.10;2.75;;;;;;;28.34;100.00;99473.09;5032206;28;20103;-79
2023/09/21 10:00:29;;;;;;;13.88;3.53;;;;;;;28.30;100.00;99477.97;5032376;28;20606;-79
2023/09/21 10:02:58;;;;;;;4.40;2.80;;;;;;;28.23;100.00;99491.53;5032245;28;20362;-79
2023/09/21 10:05:26;;;;;;;4.75;2.83;;;;;;;28.11;100.00;99484.09;5032501;28;20143;-79
2023/09/21 10:07:55;;;;;;;5.68;2.92;;;;;;;28.03;100.00;99481.41;5032237;28;20495;-78
2023/09/21 10:10:27;;;;;;;7.40;3.22;;;;;;;27.99;100.00;99464.31;5032378;28;20033;-78
2023/09/21 10:12:56;;;;;;;8.45;2.95;;;;;;;27.91;100.00;99475.50;5031287;28;20023;-80
2023/09/21 10:15:23;;;;;;;7.20;3.42;;;;;;;27.85;100.00;99475.09;5032542;28;20029;-77
2023/09/21 10:17:50;;;;;;;9.55;3.53;;;;;;;27.81;100.00;99479.94;5033923;28;20026;-78
2023/09/21 10:20:32;;;;;;;14.57;3.58;;;;;;;27.74;100.00;99469.22;5034116;28;20040;-79
2023/09/21 10:23:01;;;;;;;13.75;4.20;;;;;;;27.63;100.00;99469.94;5033726;28;20421;-77
2023/09/21 10:25:39;;;;;;;9.20;2.65;;;;;;;27.47;100.00;99464.53;5024758;28;20135;-78
2023/09/21 10:28:29;;;;;;;12.00;3.50;;;;;;;27.28;100.00;99463.94;5031697;28;20021;-77
2023/09/21 10:31:23;;;;;;;8.73;3.15;;;;;;;27.10;100.00;99461.31;5032240;28;20026;-80
2023/09/21 10:33:51;;;;;;;6.38;2.72;;;;;;;27.01;100.00;99455.53;5033806;28;20087;-77
2023/09/21 10:36:43;;;;;;;7.70;2.28;;;;;;;26.93;100.00;99441.06;5031741;28;20044;-76
2023/09/21 10:39:12;;;;;;;5.80;2.60;;;;;;;26.97;100.00;99441.34;5024046;28;20041;-80
2023/09/21 10:41:42;;;;;;;4.57;2.13;;;;;;;27.00;100.00;99428.38;5033438;28;20034;-80
2023/09/21 10:44:09;;;;;;;6.25;2.83;;;;;;;27.14;100.00;99429.31;5032540;28;20175;-78
2023/09/21 10:46:37;;;;;;;6.65;2.42;;;;;;;27.23;100.00;99436.47;5033644;28;20029;-79
2023/09/21 10:49:11;;;;;;;6.25;2.50;;;;;;;27.36;100.00;99430.03;4999970;28;20060;-78
2023/09/21 10:51:40;;;;;;;2.40;2.20;;;;;;;27.42;100.00;99421.66;5032339;28;20029;-78
2023/09/21 10:54:10;;;;;;;7.13;2.88;;;;;;;27.49;100.00;99425.75;5032961;28;20482;-81
2023/09/21 10:56:37;;;;;;;5.55;2.67;;;;;;;27.42;100.00;99404.03;5033784;28;20033;-80
2023/09/21 10:59:06;;;;;;;9.48;2.50;;;;;;;27.50;100.00;99410.41;5033900;28;20122;-77
2023/09/21 11:01:35;;;;;;;9.55;2.50;;;;;;;27.47;100.00;99405.06;5031817;28;20085;-77
2023/09/21 11:04:02;;;;;;;11.00;3.15;;;;;;;27.36;100.00;99405.78;5016374;28;20026;-78
2023/09/21 11:06:28;;;;;;;5.97;2.85;;;;;;;27.42;100.00;99392.28;5012571;28;20472;-77
2023/09/21 11:08:55;;;;;;;6.72;2.17;;;;;;;27.41;100.00;99384.13;4994585;28;20037;-77
2023/09/21 11:11:22;;;;;;;7.03;2.42;;;;;;;27.41;100.00;99384.88;5013283;28;20080;-80
2023/09/21 11:13:51;;;;;;;10.65;3.00;;;;;;;27.35;100.00;99366.13;5013662;28;20418;-81
2023/09/21 11:16:21;;;;;;;8.07;2.33;;;;;;;27.34;100.00;99367.53;5028152;28;20041;-78
2023/09/21 11:18:53;;;;;;;10.63;3.80;;;;;;;27.36;100.00;99379.38;5033920;28;20109;-79
2023/09/21 11:21:22;;;;;;;6.07;2.63;;;;;;;27.34;100.00;99373.41;5033673;28;20025;-80
2023/09/21 11:23:49;;;;;;;4.45;2.60;;;;;;;27.35;100.00;99366.91;4994795;28;20475;-81
2023/09/21 11:26:15;;;;;;;6.10;3.15;;;;;;;27.41;100.00;99369.44;4984012;28;20490;-81
2023/09/21 11:28:43;;;;;;;5.90;3.00;;;;;;;27.49;100.00;99367.81;5031958;28;20033;-82
2023/09/21 11:31:08;;;;;;;4.68;2.72;;;;;;;27.57;100.00;99365.38;5032063;28;20049;-81
2023/09/21 11:33:35;;;;;;;6.30;3.35;;;;;;;27.52;100.00;99339.34;5033607;28;20030;-84
2023/09/21 11:36:06;;;;;;;8.95;2.92;;;;;;;27.69;100.00;99355.84;5015514;28;20048;-86
2023/09/21 11:38:36;;;;;;;10.57;3.05;;;;;;;27.75;100.00;99359.16;5033572;28;20033;-82